Time;durP1;ratioP1;P1;durP2;ratioP2;P2;SDS_P1;SDS_P2;PMS_P1;PMS_P2;Temp;Humidity;BMP_temperature;BMP_pressure;BME280_temperature;BME280_humidity;BME280_pressure;Samples;Min_cycle;Max_cycle;Signal;HPM_P1;HPM_P2
2021/11/17 02:27:32;;;;;;;18.77;9.85;;;;;;;7.57;83.43;100937.03;5049648;28;20039;-20
2021/11/17 02:30:08;;;;;;;18.90;10.68;;;;;;;7.68;83.00;100939.25;5049838;28;20029;-20
2021/11/17 02:32:39;;;;;;;20.33;11.88;;;;;;;7.51;82.79;100940.41;5050309;28;20060;-21
2021/11/17 02:35:37;;;;;;;11.30;6.93;;;;;;;7.53;82.96;100938.41;5049528;28;20507;-20
2021/11/17 02:38:28;;;;;;;17.08;9.50;;;;;;;7.32;83.09;100939.06;5049585;28;20033;-21
2021/11/17 02:41:26;;;;;;;10.70;6.35;;;;;;;7.26;83.18;100934.44;5049028;28;20037;-20
2021/11/17 02:44:01;;;;;;;11.50;7.05;;;;;;;7.26;83.71;100942.41;5004820;28;20051;-21
2021/11/17 02:46:35;;;;;;;13.90;6.93;;;;;;;7.36;82.45;100941.16;5049416;28;20029;-21
2021/11/17 02:49:09;;;;;;;12.32;5.25;;;;;;;7.10;82.38;100946.78;5049766;28;20024;-21
2021/11/17 02:51:44;;;;;;;13.02;6.65;;;;;;;6.89;83.34;100930.69;5049349;28;20049;-21
2021/11/17 02:54:25;;;;;;;11.88;6.15;;;;;;;7.23;82.67;100948.88;5048941;28;20037;-21
2021/11/17 02:57:16;;;;;;;13.63;6.03;;;;;;;7.04;84.20;100944.84;5049126;28;20120;-20
2021/11/17 03:00:00;;;;;;;11.45;6.57;;;;;;;6.90;85.03;100930.47;5011139;28;20124;-21
2021/11/17 03:02:37;;;;;;;14.00;6.95;;;;;;;7.38;84.14;100941.81;5048851;28;20117;-21
2021/11/17 03:05:34;;;;;;;14.57;6.60;;;;;;;7.31;83.05;100948.00;5049156;28;20033;-20
2021/11/17 03:08:18;;;;;;;12.40;6.80;;;;;;;7.35;82.44;100949.31;5048933;28;20028;-21
2021/11/17 03:11:15;;;;;;;12.00;7.32;;;;;;;7.55;81.36;100945.19;5048971;28;20029;-21
2021/11/17 03:14:18;;;;;;;11.55;7.80;;;;;;;7.39;80.70;100939.97;5048808;28;20071;-21
2021/11/17 03:16:56;;;;;;;13.77;7.93;;;;;;;7.30;82.16;100935.75;5048747;28;20052;-21
2021/11/17 03:19:34;;;;;;;18.60;9.13;;;;;;;7.31;82.62;100932.91;5048867;28;20033;-21
2021/11/17 03:22:14;;;;;;;25.88;14.60;;;;;;;7.29;81.73;100931.44;5048854;28;20040;-20
2021/11/17 03:25:18;;;;;;;18.42;12.07;;;;;;;7.29;81.92;100929.59;5048710;28;20053;-20
2021/11/17 03:28:25;;;;;;;14.25;7.15;;;;;;;7.41;82.04;100937.97;5048623;28;20072;-20
2021/11/17 03:31:00;;;;;;;11.63;6.07;;;;;;;7.33;81.83;100924.78;4993515;28;20041;-20
2021/11/17 03:33:38;;;;;;;11.32;6.95;;;;;;;7.21;82.20;100922.53;5030492;28;20286;-20
2021/11/17 03:36:09;;;;;;;11.52;5.88;;;;;;;7.22;82.48;100933.97;5048434;28;20033;-21
2021/11/17 03:39:04;;;;;;;12.15;6.57;;;;;;;7.29;82.00;100929.59;5049035;28;20108;-21
2021/11/17 03:41:57;;;;;;;12.88;7.38;;;;;;;7.40;81.51;100931.84;5043661;28;20467;-20
2021/11/17 03:44:33;;;;;;;12.93;7.30;;;;;;;7.21;81.68;100905.78;5048181;28;20111;-21
2021/11/17 03:47:04;;;;;;;13.45;6.95;;;;;;;7.26;81.65;100907.91;5048293;28;20466;-20
2021/11/17 03:50:05;;;;;;;11.82;7.13;;;;;;;7.60;80.93;100921.59;5048075;28;20056;-21
2021/11/17 03:52:48;;;;;;;13.93;7.13;;;;;;;7.54;80.97;100922.31;5004926;28;20103;-21
2021/11/17 03:55:26;;;;;;;12.27;7.03;;;;;;;7.51;81.81;100924.47;5048262;28;20534;-21
2021/11/17 03:58:06;;;;;;;12.18;7.07;;;;;;;7.11;82.92;100919.28;5048333;28;20033;-21
2021/11/17 04:01:10;;;;;;;12.95;7.13;;;;;;;7.24;82.84;100922.16;5048426;28;20061;-20
2021/11/17 04:04:00;;;;;;;14.60;7.25;;;;;;;7.48;82.47;100936.28;4992993;28;20501;-20
2021/11/17 04:06:46;;;;;;;17.55;8.30;;;;;;;7.39;82.99;100935.50;5047995;28;20021;-21
2021/11/17 04:09:36;;;;;;;15.48;8.25;;;;;;;6.97;84.35;100930.63;5048231;28;20509;-21
2021/11/17 04:12:23;;;;;;;17.80;8.38;;;;;;;6.82;85.13;100949.09;5048139;28;20033;-21
2021/11/17 04:15:11;;;;;;;12.98;7.68;;;;;;;7.01;84.67;100937.25;5047771;28;20061;-21
2021/11/17 04:17:55;;;;;;;;;;;;;;;7.19;83.81;100945.75;5048316;28;20040;-21
2021/11/17 04:20:39;;;;;;;16.42;7.85;;;;;;;7.14;83.86;100942.78;5047918;28;20013;-20
2021/11/17 04:23:13;;;;;;;16.67;7.50;;;;;;;7.12;83.80;100944.78;5048191;28;20071;-20
2021/11/17 04:25:48;;;;;;;16.40;8.20;;;;;;;7.45;83.01;100945.41;5047997;28;20087;-21
2021/11/17 04:28:28;;;;;;;17.65;8.98;;;;;;;7.58;81.97;100952.81;5047070;28;20094;-20
2021/11/17 04:31:07;;;;;;;32.90;15.80;;;;;;;7.77;80.36;100932.91;5047328;28;20029;-21
2021/11/17 04:33:44;;;;;;;20.80;11.82;;;;;;;7.93;79.86;100947.88;5048077;28;20040;-21
2021/11/17 04:36:47;;;;;;;58.70;33.90;;;;;;;7.88;80.07;100960.03;5047860;28;20094;-21
2021/11/17 04:39:21;;;;;;;24.83;13.95;;;;;;;7.91;79.26;100954.38;5047825;28;20033;-20
2021/11/17 04:41:50;;;;;;;21.05;12.13;;;;;;;8.03;79.13;100952.94;5047720;28;20036;-21
2021/11/17 04:44:45;;;;;;;198.20;96.80;;;;;;;7.99;78.75;100956.97;5047621;28;20029;-21
2021/11/17 04:47:13;;;;;;;93.05;51.67;;;;;;;7.70;79.94;100952.38;5047533;28;20405;-21
2021/11/17 04:49:57;;;;;;;38.20;20.88;;;;;;;7.74;79.22;100953.66;5047625;28;20033;-20
2021/11/17 04:52:55;;;;;;;32.35;18.50;;;;;;;7.75;80.12;100950.03;5047688;28;20037;-20
2021/11/17 04:55:39;;;;;;;23.15;14.27;;;;;;;7.79;78.86;100948.66;5037182;28;20512;-20
2021/11/17 04:58:07;;;;;;;34.90;18.75;;;;;;;7.85;79.05;100955.91;5047614;28;20059;-20
2021/11/17 05:00:40;;;;;;;;;;;;;;;7.93;78.18;100947.88;5047805;28;20125;-22
2021/11/17 05:03:17;;;;;;;37.47;19.77;;;;;;;7.93;78.28;100947.88;5047807;28;19915;-21
2021/11/17 05:05:51;;;;;;;48.88;31.85;;;;;;;7.99;78.06;100952.47;5049918;28;20493;-21
2021/11/17 05:08:35;;;;;;;126.97;79.95;;;;;;;8.09;77.48;100960.19;5051028;28;20040;-20
2021/11/17 05:11:36;;;;;;;75.15;50.42;;;;;;;7.99;78.10;100956.97;5051132;28;20055;-20
2021/11/17 05:14:23;;;;;;;37.85;18.35;;;;;;;8.14;78.05;100965.75;5039818;28;20053;-20
2021/11/17 05:17:03;;;;;;;20.47;13.07;;;;;;;8.10;78.35;100963.66;5051125;28;20033;-21
2021/11/17 05:19:59;;;;;;;14.38;8.32;;;;;;;8.00;77.50;100963.91;5051026;28;20032;-27
2021/11/17 05:22:39;;;;;;;16.67;8.23;;;;;;;7.89;78.10;100981.09;5050952;28;20039;-21
2021/11/17 05:25:43;;;;;;;14.93;8.90;;;;;;;7.70;78.59;100973.59;5050781;28;20060;-21
2021/11/17 05:28:21;;;;;;;15.50;9.02;;;;;;;7.76;79.19;100978.22;4969355;28;20084;-20
2021/11/17 05:31:05;;;;;;;19.63;9.27;;;;;;;7.68;79.12;100970.31;4969818;28;20057;-20
2021/11/17 05:33:36;;;;;;;34.85;23.65;;;;;;;8.33;77.59;100993.63;5023888;28;20041;-21
2021/11/17 05:36:16;;;;;;;58.00;39.78;;;;;;;8.10;77.26;100979.59;5050758;28;20524;-21
2021/11/17 05:38:45;;;;;;;88.05;53.38;;;;;;;8.17;77.07;100985.81;5050592;28;20108;-21
2021/11/17 05:41:19;;;;;;;;;;;;;;;8.73;75.49;100988.13;5051035;28;20025;-21
2021/11/17 05:44:22;;;;;;;42.75;26.88;;;;;;;8.41;76.28;100990.13;5050460;28;19960;-21
2021/11/17 05:46:56;;;;;;;29.95;19.40;;;;;;;8.80;75.12;100987.19;5050467;28;20406;-20
2021/11/17 05:49:28;;;;;;;20.85;14.05;;;;;;;8.74;75.49;100987.91;5050565;28;20493;-21
2021/11/17 05:52:24;;;;;;;31.48;16.52;;;;;;;8.81;75.36;100994.16;5050427;28;20029;-21
2021/11/17 05:55:07;;;;;;;85.93;41.92;;;;;;;9.11;74.03;100986.13;5032420;28;20064;-21
2021/11/17 05:57:41;;;;;;;39.90;22.15;;;;;;;8.71;74.35;100998.13;5032235;28;20524;-21
2021/11/17 06:00:29;;;;;;;34.53;21.45;;;;;;;8.51;75.10;100995.16;5050577;28;20031;-22
2021/11/17 06:02:57;;;;;;;63.20;40.58;;;;;;;8.52;74.79;100994.16;5050605;28;20788;-21
2021/11/17 06:05:22;;;;;;;34.78;24.20;;;;;;;8.37;76.00;100991.47;5050358;28;20041;-22
2021/11/17 06:07:47;;;;;;;32.97;23.48;;;;;;;8.34;76.46;100999.81;5050254;28;20035;-21
2021/11/17 06:10:21;;;;;;;25.88;16.75;;;;;;;8.26;77.68;101006.00;5049965;28;20032;-20
2021/11/17 06:12:47;;;;;;;26.42;16.80;;;;;;;8.49;76.65;101005.97;5016333;28;20041;-21
2021/11/17 06:15:13;;;;;;;26.30;15.48;;;;;;;8.74;75.61;100993.22;5049604;28;20056;-21
2021/11/17 06:17:39;;;;;;;71.18;32.88;;;;;;;8.95;74.79;100994.31;5031035;28;20033;-21
2021/11/17 06:20:05;;;;;;;112.70;49.15;;;;;;;8.94;75.38;101003.31;5032090;28;20036;-22
2021/11/17 06:22:32;;;;;;;98.22;45.25;;;;;;;9.12;75.24;101005.59;5031862;28;20095;-21
2021/11/17 06:24:58;;;;;;;64.63;32.75;;;;;;;9.29;74.18;100998.22;5049958;28;20224;-21
2021/11/17 06:27:28;;;;;;;42.63;24.17;;;;;;;9.17;74.43;100988.03;5032232;28;20029;-20
2021/11/17 06:29:58;;;;;;;45.40;24.15;;;;;;;9.02;74.98;101005.88;5031981;28;20435;-21
2021/11/17 06:32:23;;;;;;;39.75;25.27;;;;;;;9.27;73.62;100992.25;5049596;28;20028;-21
2021/11/17 06:34:51;;;;;;;39.05;23.17;;;;;;;9.36;73.52;100999.13;5049620;28;20033;-21
2021/11/17 06:37:18;;;;;;;43.38;24.75;;;;;;;9.39;73.71;100974.78;5049669;28;20029;-20
2021/11/17 06:39:45;;;;;;;31.98;21.30;;;;;;;9.29;74.17;100998.22;5049577;28;20025;-20
2021/11/17 06:42:13;;;;;;;27.15;16.58;;;;;;;9.30;74.34;101003.38;5049382;28;20505;-21
2021/11/17 06:44:39;;;;;;;29.58;17.38;;;;;;;9.19;74.27;100983.38;5015176;28;20044;-22
2021/11/17 06:47:04;;;;;;;32.30;17.15;;;;;;;9.23;74.14;101008.63;5049508;28;20040;-21
2021/11/17 06:49:30;;;;;;;31.23;16.95;;;;;;;9.13;74.21;100991.28;5049145;28;20055;-22
2021/11/17 06:51:55;;;;;;;25.67;15.30;;;;;;;9.36;73.98;101001.78;5031679;28;20025;-21
2021/11/17 06:54:21;;;;;;;24.63;13.98;;;;;;;9.63;73.35;100995.72;5049264;28;20025;-20
2021/11/17 06:56:46;;;;;;;18.63;13.52;;;;;;;9.24;73.93;100994.28;5031573;28;20477;-20
2021/11/17 06:59:12;;;;;;;21.80;13.30;;;;;;;9.18;73.88;100984.38;5031356;28;20147;-21
2021/11/17 07:01:37;;;;;;;25.67;13.95;;;;;;;9.36;73.82;100985.81;5049243;28;20511;-20
2021/11/17 07:04:03;;;;;;;30.73;14.55;;;;;;;9.33;73.26;100980.84;5049357;28;20036;-21
2021/11/17 07:06:29;;;;;;;24.52;13.95;;;;;;;9.24;74.10;100993.47;5048874;28;20039;-20
2021/11/17 07:08:55;;;;;;;24.63;13.55;;;;;;;9.41;73.26;100988.72;5048939;28;20465;-21
2021/11/17 07:11:20;;;;;;;24.52;12.25;;;;;;;9.51;73.11;100989.25;5049062;28;20033;-21
2021/11/17 07:13:45;;;;;;;27.50;16.85;;;;;;;9.29;72.53;100967.09;5030914;28;20543;-20
2021/11/17 07:16:11;;;;;;;17.75;10.77;;;;;;;9.61;71.74;100988.94;5048529;28;20029;-21
2021/11/17 07:18:37;;;;;;;30.85;15.75;;;;;;;9.36;71.87;100968.00;5048973;28;20037;-21
2021/11/17 07:21:04;;;;;;;62.42;28.20;;;;;;;9.16;73.58;100982.94;5048703;28;20033;-21
2021/11/17 07:23:30;;;;;;;72.72;36.35;;;;;;;9.03;73.82;100981.75;5048780;28;20032;-21
2021/11/17 07:25:55;;;;;;;43.63;23.25;;;;;;;9.17;73.72;100964.09;5048742;28;20131;-21
2021/11/17 07:28:21;;;;;;;29.23;20.65;;;;;;;9.47;73.28;100993.31;5047840;28;20091;-21
2021/11/17 07:30:46;;;;;;;28.63;21.10;;;;;;;9.60;72.89;100998.78;5048931;28;20028;-22
2021/11/17 07:33:13;;;;;;;25.58;16.95;;;;;;;9.58;72.54;100978.66;5048672;28;20127;-20
2021/11/17 07:35:40;;;;;;;26.20;14.05;;;;;;;9.32;73.17;100989.88;5048502;28;20037;-21
2021/11/17 07:38:08;;;;;;;21.15;14.07;;;;;;;9.44;72.72;100975.06;5014581;28;20024;-21
2021/11/17 07:40:35;;;;;;;26.25;16.65;;;;;;;9.81;72.04;100981.97;5048637;28;20200;-21
2021/11/17 07:43:05;;;;;;;27.13;12.73;;;;;;;9.67;71.00;100971.38;5048560;28;20878;-21
2021/11/17 07:45:31;;;;;;;25.40;11.75;;;;;;;9.42;71.87;100993.06;5047987;28;20107;-21
2021/11/17 07:47:57;;;;;;;22.67;10.95;;;;;;;9.41;72.63;100980.75;5048492;28;20039;-21
2021/11/17 07:50:22;;;;;;;21.33;11.07;;;;;;;9.44;71.51;100993.69;5048348;28;20493;-21
2021/11/17 07:52:48;;;;;;;25.98;13.68;;;;;;;9.21;72.12;100976.03;5048520;28;20067;-21
2021/11/17 07:55:14;;;;;;;28.90;15.02;;;;;;;9.50;71.90;100961.00;5048252;28;20489;-21
2021/11/17 07:57:40;;;;;;;26.73;14.38;;;;;;;9.89;70.98;100986.34;5048112;28;20028;-21
2021/11/17 08:00:17;;;;;;;29.90;14.27;;;;;;;9.88;70.86;100974.03;5048610;28;20044;-21
2021/11/17 08:02:43;;;;;;;18.08;10.13;;;;;;;9.99;68.93;100991.31;5015059;28;20032;-20
2021/11/17 08:05:08;;;;;;;21.85;9.18;;;;;;;9.90;70.18;100993.31;5030615;28;20091;-21
2021/11/17 08:07:34;;;;;;;22.58;13.40;;;;;;;10.02;68.42;100991.78;5030208;28;20064;-20
2021/11/17 08:10:00;;;;;;;16.08;7.32;;;;;;;9.95;69.01;100988.25;5030076;28;20056;-20
2021/11/17 08:12:25;;;;;;;17.33;6.82;;;;;;;9.73;69.85;100975.94;5030054;28;20531;-21
2021/11/17 08:14:51;;;;;;;25.95;12.93;;;;;;;9.60;69.91;100993.44;5048076;28;20053;-20
2021/11/17 08:17:18;;;;;;;21.90;11.60;;;;;;;9.64;68.78;100978.75;5047950;28;20087;-20
2021/11/17 08:19:44;;;;;;;25.58;13.73;;;;;;;9.31;70.98;100983.69;5048147;28;20044;-20
2021/11/17 08:22:10;;;;;;;22.73;11.88;;;;;;;9.26;71.02;100994.09;5047858;28;20112;-20
2021/11/17 08:24:37;;;;;;;24.27;11.02;;;;;;;9.34;70.59;100978.03;5047621;28;20500;-20
2021/11/17 08:27:04;;;;;;;16.70;8.63;;;;;;;9.39;70.86;100980.09;5047776;28;20037;-21
2021/11/17 08:29:30;;;;;;;17.77;6.33;;;;;;;9.23;70.59;100983.81;5047956;28;20037;-21
2021/11/17 08:31:55;;;;;;;14.10;6.28;;;;;;;8.88;71.35;100977.47;5048005;28;20505;-20
2021/11/17 08:34:21;;;;;;;11.88;5.93;;;;;;;9.26;72.51;100991.44;5047460;28;20029;-20
2021/11/17 08:36:46;;;;;;;10.98;5.32;;;;;;;9.28;70.38;100978.78;5048110;28;20036;-20
2021/11/17 08:39:16;;;;;;;12.15;6.55;;;;;;;9.61;69.90;100988.94;5047671;28;20091;-20
2021/11/17 08:41:42;;;;;;;20.05;6.75;;;;;;;9.70;69.58;100982.47;5051861;28;20032;-21
2021/11/17 08:44:07;;;;;;;79.70;12.13;;;;;;;9.80;69.94;100974.16;5033736;28;20025;-21
2021/11/17 08:46:33;;;;;;;10.55;5.22;;;;;;;9.49;68.20;100972.63;5051656;28;20090;-21
2021/11/17 08:49:00;;;;;;;13.60;6.25;;;;;;;9.51;68.64;100983.09;5033952;28;20029;-21
2021/11/17 08:51:29;;;;;;;12.63;7.10;;;;;;;10.00;67.90;100985.81;5051543;28;20505;-20
2021/11/17 08:53:55;;;;;;;15.80;7.22;;;;;;;10.06;66.67;100989.56;5051531;28;20516;-21
2021/11/17 08:56:21;;;;;;;11.98;6.88;;;;;;;10.33;65.45;100993.25;5033233;28;20037;-21
2021/11/17 08:58:46;;;;;;;16.58;6.50;;;;;;;10.36;64.88;100981.38;5051270;28;20055;-20
2021/11/17 09:01:12;;;;;;;18.70;7.10;;;;;;;10.20;65.28;100996.63;5051508;28;20037;-20
2021/11/17 09:03:37;;;;;;;13.10;5.68;;;;;;;10.10;65.15;100993.47;5051435;28;20063;-21
2021/11/17 09:06:06;;;;;;;10.30;5.25;;;;;;;9.85;66.75;101001.06;5051395;28;20041;-21
2021/11/17 09:08:33;;;;;;;10.95;5.45;;;;;;;10.36;65.06;100998.22;5051580;28;20037;-21
2021/11/17 09:11:01;;;;;;;10.18;5.47;;;;;;;10.45;64.04;100986.38;5051264;28;20036;-22
2021/11/17 09:13:27;;;;;;;11.75;5.28;;;;;;;10.68;63.61;100993.28;5050971;28;20076;-21
2021/11/17 09:15:53;;;;;;;11.27;5.80;;;;;;;10.67;64.83;100993.50;5051160;28;20029;-21
2021/11/17 09:18:20;;;;;;;13.85;5.50;;;;;;;10.37;63.78;100981.19;5051085;28;20032;-20
2021/11/17 09:20:46;;;;;;;13.75;5.82;;;;;;;10.16;64.53;100992.72;5050975;28;20480;-20
2021/11/17 09:23:14;;;;;;;11.25;6.93;;;;;;;10.07;66.51;100988.53;5051243;28;20059;-20
2021/11/17 09:25:39;;;;;;;16.87;7.10;;;;;;;9.96;66.79;100971.22;5051051;28;20063;-22
2021/11/17 09:28:05;;;;;;;18.55;8.73;;;;;;;10.58;65.27;100982.13;5050962;28;20435;-20
2021/11/17 09:30:31;;;;;;;14.95;9.27;;;;;;;10.58;64.97;100980.31;5050854;28;20037;-21
2021/11/17 09:32:58;;;;;;;14.02;7.53;;;;;;;10.33;65.86;100971.94;5050820;28;20033;-20
2021/11/17 09:35:24;;;;;;;25.02;8.98;;;;;;;10.64;65.13;100987.53;5050590;28;20037;-20
2021/11/17 09:37:51;;;;;;;17.20;6.70;;;;;;;10.50;64.38;100983.13;5050996;28;20374;-21
2021/11/17 09:40:26;;;;;;;12.68;6.40;;;;;;;10.61;64.37;100969.25;5032503;28;20025;-20
2021/11/17 09:42:52;;;;;;;16.48;6.30;;;;;;;10.57;63.05;100981.31;5050669;28;20063;-21
2021/11/17 09:45:17;;;;;;;14.68;7.20;;;;;;;10.80;62.60;100975.69;5050566;28;20052;-21
2021/11/17 09:47:44;;;;;;;12.40;6.35;;;;;;;11.03;62.51;100961.22;5050408;28;20025;-22
2021/11/17 09:50:18;;;;;;;13.20;6.93;;;;;;;11.10;61.06;100967.41;5050396;28;20121;-21
2021/11/17 09:52:48;;;;;;;17.60;7.00;;;;;;;10.99;61.60;100955.47;5050944;28;20090;-21
2021/11/17 09:55:28;;;;;;;13.35;6.25;;;;;;;10.90;62.55;100969.19;5050176;28;20072;-20
2021/11/17 09:58:30;;;;;;;15.57;6.78;;;;;;;11.02;61.80;100959.59;5050502;28;20090;-21
2021/11/17 10:01:22;;;;;;;14.68;5.65;;;;;;;10.50;63.70;100943.13;5050092;28;20029;-21
2021/11/17 10:03:53;;;;;;;16.13;6.10;;;;;;;10.67;63.14;100956.97;5017310;28;20116;-20
2021/11/17 10:14:48;;;;;;;16.85;6.53;;;;;;;11.01;61.78;100931.22;5032505;28;20868;-20
2021/11/17 10:17:43;;;;;;;14.30;5.72;;;;;;;10.68;63.14;100942.59;5049903;28;20039;-21
2021/11/17 10:20:23;;;;;;;12.88;5.65;;;;;;;10.31;61.45;100920.66;5049462;28;20102;-20
2021/11/17 10:22:52;;;;;;;9.98;4.70;;;;;;;10.45;62.20;100930.38;5050162;28;20029;-21
2021/11/17 10:25:22;;;;;;;10.25;5.13;;;;;;;10.63;61.65;100929.03;5049800;28;20040;-21
2021/11/17 10:27:56;;;;;;;14.00;5.45;;;;;;;10.81;62.42;100928.50;5049778;28;20067;-21
2021/11/17 10:30:27;;;;;;;10.50;4.78;;;;;;;10.44;61.83;100919.91;5049409;28;20038;-21
2021/11/17 10:33:30;;;;;;;12.35;5.75;;;;;;;10.73;61.58;100920.69;5049621;28;20017;-22
2021/11/17 10:35:58;;;;;;;12.48;7.45;;;;;;;10.50;63.21;100919.13;4994360;28;20497;-20
2021/11/17 10:38:30;;;;;;;11.18;5.75;;;;;;;10.75;61.53;100922.13;5049582;28;20533;-21
2021/11/17 10:41:02;;;;;;;11.32;5.63;;;;;;;10.33;61.20;100907.94;5049813;28;20393;-22
2021/11/17 10:43:35;;;;;;;10.75;5.43;;;;;;;11.03;59.70;100916.69;5049469;28;20025;-20
2021/11/17 10:46:29;;;;;;;12.43;5.68;;;;;;;10.85;60.09;100919.91;5049356;28;20041;-20
2021/11/17 10:49:02;;;;;;;9.65;4.93;;;;;;;10.94;60.20;100909.88;5047145;28;20037;-21
2021/11/17 10:51:32;;;;;;;10.07;4.35;;;;;;;10.95;60.63;100910.69;5049199;28;20032;-21
2021/11/17 10:54:00;;;;;;;8.98;4.32;;;;;;;10.86;59.82;100886.84;5049576;28;20068;-20
2021/11/17 10:56:27;;;;;;;10.98;4.03;;;;;;;11.23;59.52;100900.69;5048923;28;20032;-20
2021/11/17 10:58:55;;;;;;;8.52;3.80;;;;;;;11.24;60.19;100893.53;5049083;28;20029;-20
2021/11/17 11:01:22;;;;;;;9.07;3.80;;;;;;;11.21;57.90;100899.25;5049193;28;20044;-20
2021/11/17 11:03:54;;;;;;;8.35;4.05;;;;;;;11.22;58.18;100875.03;5030414;28;20358;-21
2021/11/17 11:06:24;;;;;;;7.80;3.53;;;;;;;10.93;58.10;100880.69;5014853;28;20063;-20
2021/11/17 11:09:10;;;;;;;18.73;6.57;;;;;;;10.86;59.97;100870.84;5031009;28;20086;-20
2021/11/17 11:11:39;;;;;;;11.25;5.50;;;;;;;11.11;59.82;100891.63;5048828;28;20091;-20
2021/11/17 11:14:22;;;;;;;6.15;3.30;;;;;;;10.97;57.45;100892.63;5014729;28;20570;-20
2021/11/17 11:16:52;;;;;;;10.18;3.75;;;;;;;10.68;59.96;100891.09;5031167;28;20519;-20
2021/11/17 11:19:20;;;;;;;8.38;4.72;;;;;;;10.36;59.43;100880.91;5030873;28;20068;-20
2021/11/17 11:21:45;;;;;;;7.47;3.88;;;;;;;10.33;60.88;100891.13;5048888;28;20025;-20
2021/11/17 11:24:37;;;;;;;8.27;3.95;;;;;;;10.36;59.62;100882.72;5048582;28;20496;-20
2021/11/17 11:27:02;;;;;;;7.65;3.92;;;;;;;10.85;60.75;100885.22;5048756;28;20024;-21
2021/11/17 11:29:35;;;;;;;8.10;4.03;;;;;;;11.25;58.16;100879.94;5049013;28;20025;-21
2021/11/17 11:32:08;;;;;;;8.13;3.67;;;;;;;10.90;59.90;100859.78;5048603;28;20033;-21
2021/11/17 11:34:37;;;;;;;8.50;3.47;;;;;;;10.73;58.60;100876.13;5048613;28;20041;-20
2021/11/17 11:37:05;;;;;;;9.60;4.53;;;;;;;11.13;59.84;100865.56;5048349;28;20036;-21
2021/11/17 11:39:33;;;;;;;9.23;3.47;;;;;;;10.95;60.00;100857.31;5030695;28;20143;-21
2021/11/17 11:42:10;;;;;;;9.38;3.40;;;;;;;11.32;58.56;100863.97;5048372;28;20032;-21
2021/11/17 11:44:40;;;;;;;10.07;3.60;;;;;;;11.10;57.10;100852.63;5048586;28;20104;-20
2021/11/17 11:47:09;;;;;;;7.25;3.75;;;;;;;11.26;57.25;100864.78;5048457;28;20036;-20
2021/11/17 11:49:34;;;;;;;;;;;;;;;11.05;57.58;100861.25;5048596;28;20029;-20
2021/11/17 11:52:24;;;;;;;10.32;3.70;;;;;;;11.30;57.96;100867.84;5048519;28;19938;-21
2021/11/17 11:54:55;;;;;;;6.85;3.70;;;;;;;11.08;57.38;100857.34;5048396;28;20072;-20
2021/11/17 11:57:32;;;;;;;9.73;4.50;;;;;;;11.16;58.42;100861.69;5048380;28;20034;-21
2021/11/17 12:00:25;;;;;;;7.88;4.15;;;;;;;11.21;57.71;100862.69;5048239;28;20417;-21
2021/11/17 12:03:03;;;;;;;10.35;4.72;;;;;;;11.06;57.88;100856.72;5048198;28;20701;-21
2021/11/17 12:05:28;;;;;;;10.32;4.43;;;;;;;11.22;57.79;100848.31;5048111;28;20040;-21
2021/11/17 12:07:57;;;;;;;11.02;5.20;;;;;;;11.50;56.72;100849.97;5048622;28;20029;-20
2021/11/17 12:10:30;;;;;;;8.45;5.15;;;;;;;12.00;55.86;100846.88;5013673;28;20039;-20
2021/11/17 12:12:56;;;;;;;10.35;6.15;;;;;;;11.31;55.68;100842.78;5048361;28;20033;-21
2021/11/17 12:15:25;;;;;;;13.18;7.78;;;;;;;11.23;56.93;100844.63;5030347;28;20501;-21
2021/11/17 12:18:04;;;;;;;13.00;7.65;;;;;;;11.28;58.23;100852.03;5032357;28;20390;-20
2021/11/17 12:20:34;;;;;;;10.43;6.95;;;;;;;11.18;55.30;100836.41;5030729;28;20033;-20
2021/11/17 12:22:59;;;;;;;10.40;5.28;;;;;;;11.58;54.90;100847.09;5032369;28;20037;-20
2021/11/17 12:25:30;;;;;;;12.88;6.90;;;;;;;11.66;53.77;100854.09;5032013;28;20478;-21
2021/11/17 12:28:01;;;;;;;11.45;5.55;;;;;;;11.59;54.03;100846.06;5030698;28;20030;-21
2021/11/17 12:30:39;;;;;;;8.55;5.93;;;;;;;11.69;52.94;100858.19;5015142;28;20037;-20
2021/11/17 12:33:26;;;;;;;10.40;7.13;;;;;;;11.58;53.00;100860.44;5030874;28;20029;-21
2021/11/17 12:36:10;;;;;;;8.73;5.30;;;;;;;11.52;52.04;100866.63;5032002;28;20040;-21
2021/11/17 12:38:36;;;;;;;19.17;9.23;;;;;;;11.39;52.05;100838.06;5032171;28;20481;-20
2021/11/17 12:41:11;;;;;;;9.48;5.75;;;;;;;11.47;50.95;100853.06;5031878;28;20039;-20
2021/11/17 12:43:45;;;;;;;7.30;5.10;;;;;;;11.78;50.16;100849.75;5031728;28;20033;-21
2021/11/17 12:46:20;;;;;;;7.75;4.80;;;;;;;11.77;50.23;100844.59;5031939;28;20085;-21
2021/11/17 12:48:51;;;;;;;10.15;6.60;;;;;;;12.15;49.43;100851.97;5031857;28;20021;-20
2021/11/17 12:51:20;;;;;;;11.18;6.28;;;;;;;12.22;49.79;100850.13;5030465;28;20036;-21
2021/11/17 12:53:53;;;;;;;12.57;7.45;;;;;;;12.37;46.82;100848.00;5030665;28;20025;-20
2021/11/17 12:56:29;;;;;;;13.05;7.55;;;;;;;11.99;46.96;100847.91;5029855;28;20459;-20
2021/11/17 12:59:03;;;;;;;12.82;8.63;;;;;;;11.72;49.51;100841.75;5014925;28;20537;-21
2021/11/17 13:01:28;;;;;;;14.95;10.10;;;;;;;11.59;49.42;100848.75;5030167;28;20405;-21
2021/11/17 13:03:53;;;;;;;10.80;6.78;;;;;;;11.08;50.38;100841.31;5031420;28;20109;-21
2021/11/17 13:06:45;;;;;;;12.93;8.95;;;;;;;11.37;50.72;100839.31;5031286;28;20056;-21
2021/11/17 13:09:11;;;;;;;15.48;9.07;;;;;;;11.19;50.57;100827.38;5028061;28;20592;-21
2021/11/17 13:11:55;;;;;;;14.77;9.80;;;;;;;11.30;51.04;100827.78;5031293;28;20112;-21
2021/11/17 13:14:25;;;;;;;12.98;7.95;;;;;;;11.43;50.61;100827.78;5041129;28;20067;-20
2021/11/17 13:16:51;;;;;;;14.95;7.65;;;;;;;10.99;51.88;100815.84;5050970;28;20036;-20
2021/11/17 13:19:28;;;;;;;9.68;6.32;;;;;;;10.93;52.40;100833.50;5033342;28;20066;-20
2021/11/17 13:21:55;;;;;;;12.30;6.28;;;;;;;10.85;53.21;100828.34;5050929;28;20740;-20
2021/11/17 13:24:21;;;;;;;9.18;6.03;;;;;;;10.89;54.16;100826.09;5050927;28;20032;-21
2021/11/17 13:26:49;;;;;;;12.77;6.55;;;;;;;10.89;52.74;100818.09;5050308;28;20036;-20
2021/11/17 13:29:23;;;;;;;9.60;6.03;;;;;;;10.99;53.51;100818.50;5051282;28;20029;-20
2021/11/17 13:31:58;;;;;;;7.82;4.45;;;;;;;11.02;52.57;100804.78;5050716;28;20025;-20
2021/11/17 13:34:35;;;;;;;9.52;5.60;;;;;;;11.04;52.55;100808.88;5050522;28;20032;-21
2021/11/17 13:37:25;;;;;;;12.05;6.85;;;;;;;10.76;52.67;100827.69;5033574;28;20108;-21
2021/11/17 13:39:55;;;;;;;16.92;9.05;;;;;;;10.71;54.26;100827.50;5050968;28;20051;-21
2021/11/17 13:42:22;;;;;;;19.50;13.18;;;;;;;10.92;54.11;100820.38;5050302;28;20115;-20
2021/11/17 13:44:47;;;;;;;14.90;9.05;;;;;;;10.66;53.57;100819.25;5016280;28;20057;-20
2021/11/17 13:47:17;;;;;;;15.38;9.25;;;;;;;10.78;53.11;100820.31;5050596;28;20036;-20
2021/11/17 13:49:45;;;;;;;29.23;15.23;;;;;;;10.80;54.17;100812.13;5050575;28;20475;-20
2021/11/17 13:52:12;;;;;;;33.88;17.65;;;;;;;10.88;55.05;100829.78;5032495;28;20382;-20
2021/11/17 13:54:38;;;;;;;12.40;7.50;;;;;;;10.89;53.98;100812.75;5050347;28;20488;-21
2021/11/17 13:57:07;;;;;;;13.48;5.72;;;;;;;10.83;54.46;100833.88;5050270;28;20037;-21
2021/11/17 13:59:33;;;;;;;12.02;7.85;;;;;;;10.70;54.90;100833.84;5050243;28;20032;-20
2021/11/17 14:01:58;;;;;;;13.52;5.97;;;;;;;10.80;55.27;100814.78;5050422;28;20040;-21
2021/11/17 14:04:25;;;;;;;10.55;6.60;;;;;;;10.99;54.29;100831.84;5032267;28;20035;-20
2021/11/17 14:06:50;;;;;;;14.75;6.00;;;;;;;10.75;54.51;100815.41;5050376;28;20536;-21
2021/11/17 14:09:16;;;;;;;19.38;8.65;;;;;;;11.22;55.40;100832.31;5049855;28;20043;-21
2021/11/17 14:11:41;;;;;;;12.60;8.55;;;;;;;11.61;54.27;100830.66;5050286;28;20031;-21
2021/11/17 14:14:07;;;;;;;11.98;7.45;;;;;;;11.53;53.71;100830.06;5049864;28;20508;-22
2021/11/17 14:16:32;;;;;;;13.35;7.70;;;;;;;11.32;53.58;100818.56;5049914;28;20382;-20
2021/11/17 14:18:58;;;;;;;15.65;7.05;;;;;;;11.08;54.93;100824.50;5050013;28;20029;-21
2021/11/17 14:21:25;;;;;;;15.80;7.72;;;;;;;11.13;54.81;100833.50;5050292;28;20110;-20
2021/11/17 14:23:51;;;;;;;13.27;8.02;;;;;;;11.01;56.20;100805.78;5049921;28;20037;-21
2021/11/17 14:26:17;;;;;;;13.32;7.45;;;;;;;10.77;57.86;100817.88;5050090;28;20037;-20